sensor_id;sensor_type;location;lat;lon;timestamp;temperature;humidity
9723;DHT22;4900;49.306;8.500;2023-02-08T00:02:26;-1.42;68.95
9723;DHT22;4900;49.306;8.500;2023-02-08T00:05:29;-1.43;68.75
9723;DHT22;4900;49.306;8.500;2023-02-08T00:08:33;-1.43;68.76
9723;DHT22;4900;49.306;8.500;2023-02-08T00:11:36;-1.42;68.77
9723;DHT22;4900;49.306;8.500;2023-02-08T00:14:39;-1.43;68.70
9723;DHT22;4900;49.306;8.500;2023-02-08T00:17:42;-1.42;68.69
9723;DHT22;4900;49.306;8.500;2023-02-08T00:20:45;-1.43;68.67
9723;DHT22;4900;49.306;8.500;2023-02-08T00:23:48;-1.40;68.72
9723;DHT22;4900;49.306;8.500;2023-02-08T00:26:51;-1.36;68.56
9723;DHT22;4900;49.306;8.500;2023-02-08T00:29:56;-1.35;68.46
9723;DHT22;4900;49.306;8.500;2023-02-08T00:32:58;-1.35;68.51
9723;DHT22;4900;49.306;8.500;2023-02-08T00:36:05;-1.35;68.52
9723;DHT22;4900;49.306;8.500;2023-02-08T00:39:09;-1.36;68.42
9723;DHT22;4900;49.306;8.500;2023-02-08T00:42:12;-1.31;68.43
9723;DHT22;4900;49.306;8.500;2023-02-08T00:45:15;-1.31;68.44
9723;DHT22;4900;49.306;8.500;2023-02-08T00:48:18;-1.31;68.34
9723;DHT22;4900;49.306;8.500;2023-02-08T00:51:21;-1.29;68.35
9723;DHT22;4900;49.306;8.500;2023-02-08T00:54:23;-1.28;68.38
9723;DHT22;4900;49.306;8.500;2023-02-08T00:57:26;-1.29;68.46
9723;DHT22;4900;49.306;8.500;2023-02-08T01:00:29;-1.25;68.45
9723;DHT22;4900;49.306;8.500;2023-02-08T01:03:34;-1.26;68.38
9723;DHT22;4900;49.306;8.500;2023-02-08T01:06:37;-1.25;68.37
9723;DHT22;4900;49.306;8.500;2023-02-08T01:09:41;-1.25;68.32
9723;DHT22;4900;49.306;8.500;2023-02-08T01:12:44;-1.22;68.25
9723;DHT22;4900;49.306;8.500;2023-02-08T01:15:47;-1.26;68.31
9723;DHT22;4900;49.306;8.500;2023-02-08T01:18:51;-1.29;68.42
9723;DHT22;4900;49.306;8.500;2023-02-08T01:21:54;-1.32;68.23
9723;DHT22;4900;49.306;8.500;2023-02-08T01:24:58;-1.38;68.13
9723;DHT22;4900;49.306;8.500;2023-02-08T01:28:03;-1.46;68.43
9723;DHT22;4900;49.306;8.500;2023-02-08T01:31:09;-1.50;68.52
9723;DHT22;4900;49.306;8.500;2023-02-08T01:34:12;-1.53;68.50
9723;DHT22;4900;49.306;8.500;2023-02-08T01:37:15;-1.59;68.63
9723;DHT22;4900;49.306;8.500;2023-02-08T01:40:18;-1.60;68.87
9723;DHT22;4900;49.306;8.500;2023-02-08T01:43:24;-1.66;68.98
9723;DHT22;4900;49.306;8.500;2023-02-08T01:46:28;-1.67;68.80
9723;DHT22;4900;49.306;8.500;2023-02-08T01:49:34;-1.67;69.02
9723;DHT22;4900;49.306;8.500;2023-02-08T01:52:38;-1.66;68.80
9723;DHT22;4900;49.306;8.500;2023-02-08T01:55:46;-1.64;68.83
9723;DHT22;4900;49.306;8.500;2023-02-08T01:58:52;-1.70;68.69
9723;DHT22;4900;49.306;8.500;2023-02-08T02:01:57;-1.72;68.63
9723;DHT22;4900;49.306;8.500;2023-02-08T02:05:01;-1.77;68.57
9723;DHT22;4900;49.306;8.500;2023-02-08T02:08:04;-1.77;68.73
9723;DHT22;4900;49.306;8.500;2023-02-08T02:11:09;-1.87;68.64
9723;DHT22;4900;49.306;8.500;2023-02-08T02:14:12;-1.88;68.85
9723;DHT22;4900;49.306;8.500;2023-02-08T02:17:17;-1.91;68.83
9723;DHT22;4900;49.306;8.500;2023-02-08T02:27:30;-2.06;68.74
9723;DHT22;4900;49.306;8.500;2023-02-08T02:31:10;-2.07;68.79
9723;DHT22;4900;49.306;8.500;2023-02-08T02:34:40;-2.13;68.95
9723;DHT22;4900;49.306;8.500;2023-02-08T02:38:03;-2.15;68.99
9723;DHT22;4900;49.306;8.500;2023-02-08T02:41:32;-2.15;69.00
9723;DHT22;4900;49.306;8.500;2023-02-08T02:48:31;-2.24;69.13
9723;DHT22;4900;49.306;8.500;2023-02-08T02:54:51;-2.27;69.37
9723;DHT22;4900;49.306;8.500;2023-02-08T02:57:55;-2.30;69.91
9723;DHT22;4900;49.306;8.500;2023-02-08T03:01:01;-2.33;70.63
9723;DHT22;4900;49.306;8.500;2023-02-08T03:08:06;-2.37;70.91
9723;DHT22;4900;49.306;8.500;2023-02-08T03:11:18;-2.40;70.74
9723;DHT22;4900;49.306;8.500;2023-02-08T03:21:59;-2.56;71.23
9723;DHT22;4900;49.306;8.500;2023-02-08T03:28:23;-2.64;71.20
9723;DHT22;4900;49.306;8.500;2023-02-08T03:31:44;-2.68;71.21
9723;DHT22;4900;49.306;8.500;2023-02-08T03:38:30;-2.77;71.40
9723;DHT22;4900;49.306;8.500;2023-02-08T03:41:38;-2.78;71.84
9723;DHT22;4900;49.306;8.500;2023-02-08T03:44:47;-2.81;72.23
9723;DHT22;4900;49.306;8.500;2023-02-08T03:47:53;-2.78;71.83
9723;DHT22;4900;49.306;8.500;2023-02-08T03:50:59;-2.84;71.52
9723;DHT22;4900;49.306;8.500;2023-02-08T03:54:07;-2.86;71.53
9723;DHT22;4900;49.306;8.500;2023-02-08T03:57:26;-2.91;71.59
9723;DHT22;4900;49.306;8.500;2023-02-08T04:00:36;-2.95;71.87
9723;DHT22;4900;49.306;8.500;2023-02-08T04:03:42;-2.95;71.92
9723;DHT22;4900;49.306;8.500;2023-02-08T04:06:46;-2.97;71.88
9723;DHT22;4900;49.306;8.500;2023-02-08T04:09:50;-2.99;72.21
9723;DHT22;4900;49.306;8.500;2023-02-08T04:12:53;-2.97;72.12
9723;DHT22;4900;49.306;8.500;2023-02-08T04:16:05;-2.97;71.93
9723;DHT22;4900;49.306;8.500;2023-02-08T04:19:08;-3.05;71.99
9723;DHT22;4900;49.306;8.500;2023-02-08T04:22:11;-3.05;72.11
9723;DHT22;4900;49.306;8.500;2023-02-08T04:25:14;-3.03;72.36
9723;DHT22;4900;49.306;8.500;2023-02-08T04:28:17;-3.09;72.58
9723;DHT22;4900;49.306;8.500;2023-02-08T04:31:20;-3.09;72.41
9723;DHT22;4900;49.306;8.500;2023-02-08T04:34:23;-3.12;72.07
9723;DHT22;4900;49.306;8.500;2023-02-08T04:37:26;-3.16;72.23
9723;DHT22;4900;49.306;8.500;2023-02-08T04:40:29;-3.21;72.05
9723;DHT22;4900;49.306;8.500;2023-02-08T04:43:32;-3.21;72.15
9723;DHT22;4900;49.306;8.500;2023-02-08T04:46:35;-3.23;72.11
9723;DHT22;4900;49.306;8.500;2023-02-08T04:49:38;-3.26;72.13
9723;DHT22;4900;49.306;8.500;2023-02-08T04:52:41;-3.26;72.10
9723;DHT22;4900;49.306;8.500;2023-02-08T04:55:44;-3.27;72.18
9723;DHT22;4900;49.306;8.500;2023-02-08T04:58:47;-3.31;72.08
9723;DHT22;4900;49.306;8.500;2023-02-08T05:01:50;-3.31;72.00
9723;DHT22;4900;49.306;8.500;2023-02-08T05:04:53;-3.31;71.97
9723;DHT22;4900;49.306;8.500;2023-02-08T05:07:56;-3.33;72.04
9723;DHT22;4900;49.306;8.500;2023-02-08T05:10:59;-3.35;72.25
9723;DHT22;4900;49.306;8.500;2023-02-08T05:14:03;-3.35;72.40
9723;DHT22;4900;49.306;8.500;2023-02-08T05:17:06;-3.33;72.24
9723;DHT22;4900;49.306;8.500;2023-02-08T05:20:10;-3.37;72.20
9723;DHT22;4900;49.306;8.500;2023-02-08T05:23:13;-3.40;71.99
9723;DHT22;4900;49.306;8.500;2023-02-08T05:26:16;-3.40;71.91
9723;DHT22;4900;49.306;8.500;2023-02-08T05:29:20;-3.44;71.86
9723;DHT22;4900;49.306;8.500;2023-02-08T05:32:23;-3.48;72.01
9723;DHT22;4900;49.306;8.500;2023-02-08T05:35:25;-3.52;72.61
9723;DHT22;4900;49.306;8.500;2023-02-08T05:38:28;-3.51;72.99
9723;DHT22;4900;49.306;8.500;2023-02-08T05:41:31;-3.51;72.89
9723;DHT22;4900;49.306;8.500;2023-02-08T05:44:34;-3.51;72.98
9723;DHT22;4900;49.306;8.500;2023-02-08T05:47:37;-3.54;72.75
9723;DHT22;4900;49.306;8.500;2023-02-08T05:50:40;-3.56;72.46
9723;DHT22;4900;49.306;8.500;2023-02-08T05:53:43;-3.58;72.25
9723;DHT22;4900;49.306;8.500;2023-02-08T05:56:47;-3.61;71.99
9723;DHT22;4900;49.306;8.500;2023-02-08T05:59:49;-3.65;71.99
9723;DHT22;4900;49.306;8.500;2023-02-08T06:02:53;-3.74;72.18
9723;DHT22;4900;49.306;8.500;2023-02-08T06:05:58;-3.77;72.12
9723;DHT22;4900;49.306;8.500;2023-02-08T06:09:03;-3.81;72.01
9723;DHT22;4900;49.306;8.500;2023-02-08T06:12:06;-3.81;71.96
9723;DHT22;4900;49.306;8.500;2023-02-08T06:15:09;-3.86;72.07
9723;DHT22;4900;49.306;8.500;2023-02-08T06:18:13;-3.85;72.12
9723;DHT22;4900;49.306;8.500;2023-02-08T06:21:16;-3.93;71.76
9723;DHT22;4900;49.306;8.500;2023-02-08T06:24:19;-3.92;71.65
9723;DHT22;4900;49.306;8.500;2023-02-08T06:27:22;-3.96;71.61
9723;DHT22;4900;49.306;8.500;2023-02-08T06:30:24;-4.00;71.93
9723;DHT22;4900;49.306;8.500;2023-02-08T06:33:27;-4.00;71.92
9723;DHT22;4900;49.306;8.500;2023-02-08T06:36:30;-4.06;72.03
9723;DHT22;4900;49.306;8.500;2023-02-08T06:39:33;-4.06;72.02
9723;DHT22;4900;49.306;8.500;2023-02-08T06:42:36;-4.06;72.92
9723;DHT22;4900;49.306;8.500;2023-02-08T06:45:39;-4.05;72.73
9723;DHT22;4900;49.306;8.500;2023-02-08T06:48:44;-4.03;72.49
9723;DHT22;4900;49.306;8.500;2023-02-08T06:51:47;-4.05;72.34
9723;DHT22;4900;49.306;8.500;2023-02-08T06:54:50;-4.05;72.26
9723;DHT22;4900;49.306;8.500;2023-02-08T06:57:54;-4.06;73.01
9723;DHT22;4900;49.306;8.500;2023-02-08T07:00:57;-4.03;72.58
9723;DHT22;4900;49.306;8.500;2023-02-08T07:03:59;-4.06;72.70
9723;DHT22;4900;49.306;8.500;2023-02-08T07:07:02;-4.02;72.84
9723;DHT22;4900;49.306;8.500;2023-02-08T07:10:05;-4.00;72.69
9723;DHT22;4900;49.306;8.500;2023-02-08T07:13:09;-3.97;73.04
9723;DHT22;4900;49.306;8.500;2023-02-08T07:16:12;-3.92;73.34
9723;DHT22;4900;49.306;8.500;2023-02-08T07:19:15;-3.86;73.21
9723;DHT22;4900;49.306;8.500;2023-02-08T07:22:18;-3.79;73.23
9723;DHT22;4900;49.306;8.500;2023-02-08T07:25:21;-3.74;73.79
9723;DHT22;4900;49.306;8.500;2023-02-08T07:28:24;-3.68;73.38
9723;DHT22;4900;49.306;8.500;2023-02-08T07:31:27;-3.63;73.73
9723;DHT22;4900;49.306;8.500;2023-02-08T07:34:33;-3.56;73.62
9723;DHT22;4900;49.306;8.500;2023-02-08T07:37:36;-3.52;73.25
9723;DHT22;4900;49.306;8.500;2023-02-08T07:40:39;-3.50;73.39
9723;DHT22;4900;49.306;8.500;2023-02-08T07:43:42;-3.44;73.06
9723;DHT22;4900;49.306;8.500;2023-02-08T07:46:45;-3.38;73.01
9723;DHT22;4900;49.306;8.500;2023-02-08T07:49:48;-3.31;73.15
9723;DHT22;4900;49.306;8.500;2023-02-08T07:52:51;-3.26;72.92
9723;DHT22;4900;49.306;8.500;2023-02-08T07:55:54;-3.21;72.91
9723;DHT22;4900;49.306;8.500;2023-02-08T07:58:57;-3.20;72.64
9723;DHT22;4900;49.306;8.500;2023-02-08T08:02:00;-3.13;72.47
9723;DHT22;4900;49.306;8.500;2023-02-08T08:05:03;-3.10;72.63
9723;DHT22;4900;49.306;8.500;2023-02-08T08:08:10;-3.07;72.48
9723;DHT22;4900;49.306;8.500;2023-02-08T08:11:14;-3.02;72.70
9723;DHT22;4900;49.306;8.500;2023-02-08T08:14:17;-2.91;72.54
9723;DHT22;4900;49.306;8.500;2023-02-08T08:17:20;-2.88;72.57
9723;DHT22;4900;49.306;8.500;2023-02-08T08:20:23;-2.82;72.46
9723;DHT22;4900;49.306;8.500;2023-02-08T08:23:26;-2.75;72.39
9723;DHT22;4900;49.306;8.500;2023-02-08T08:26:31;-2.62;72.28
9723;DHT22;4900;49.306;8.500;2023-02-08T08:29:35;-2.53;72.16
9723;DHT22;4900;49.306;8.500;2023-02-08T08:32:39;-2.41;72.02
9723;DHT22;4900;49.306;8.500;2023-02-08T08:35:42;-2.32;71.95
9723;DHT22;4900;49.306;8.500;2023-02-08T08:38:45;-2.20;71.85
9723;DHT22;4900;49.306;8.500;2023-02-08T08:41:48;-2.10;71.73
9723;DHT22;4900;49.306;8.500;2023-02-08T08:44:52;-2.01;71.66
9723;DHT22;4900;49.306;8.500;2023-02-08T08:47:56;-1.92;71.55
9723;DHT22;4900;49.306;8.500;2023-02-08T08:51:00;-1.78;71.45
9723;DHT22;4900;49.306;8.500;2023-02-08T08:54:04;-1.68;71.38
9723;DHT22;4900;49.306;8.500;2023-02-08T08:57:07;-1.57;71.04
9723;DHT22;4900;49.306;8.500;2023-02-08T09:00:11;-1.51;70.91
9723;DHT22;4900;49.306;8.500;2023-02-08T09:03:14;-1.38;70.58
9723;DHT22;4900;49.306;8.500;2023-02-08T09:06:17;-1.28;70.51
9723;DHT22;4900;49.306;8.500;2023-02-08T09:09:21;-1.16;70.37
9723;DHT22;4900;49.306;8.500;2023-02-08T09:12:24;-1.09;70.32
9723;DHT22;4900;49.306;8.500;2023-02-08T09:15:27;-1.02;69.89
9723;DHT22;4900;49.306;8.500;2023-02-08T09:18:30;-0.91;69.61
9723;DHT22;4900;49.306;8.500;2023-02-08T09:21:34;-0.81;69.32
9723;DHT22;4900;49.306;8.500;2023-02-08T09:24:37;-0.66;69.03
9723;DHT22;4900;49.306;8.500;2023-02-08T09:27:41;-0.53;69.05
9723;DHT22;4900;49.306;8.500;2023-02-08T09:30:44;-0.32;69.74
9723;DHT22;4900;49.306;8.500;2023-02-08T09:33:47;-0.05;69.60
9723;DHT22;4900;49.306;8.500;2023-02-08T09:36:50;0.31;69.22
9723;DHT22;4900;49.306;8.500;2023-02-08T09:39:53;0.80;68.12
9723;DHT22;4900;49.306;8.500;2023-02-08T09:43:20;1.27;66.84
9723;DHT22;4900;49.306;8.500;2023-02-08T09:46:29;1.79;65.81
9723;DHT22;4900;49.306;8.500;2023-02-08T09:50:21;2.28;63.85
9723;DHT22;4900;49.306;8.500;2023-02-08T09:56:41;3.12;61.87
9723;DHT22;4900;49.306;8.500;2023-02-08T10:00:23;3.59;60.40
9723;DHT22;4900;49.306;8.500;2023-02-08T10:03:37;3.98;59.52
9723;DHT22;4900;49.306;8.500;2023-02-08T10:06:40;4.16;57.50
9723;DHT22;4900;49.306;8.500;2023-02-08T10:09:44;4.49;56.90
9723;DHT22;4900;49.306;8.500;2023-02-08T10:29:52;6.26;52.30
9723;DHT22;4900;49.306;8.500;2023-02-08T10:33:21;6.50;50.78
9723;DHT22;4900;49.306;8.500;2023-02-08T10:36:36;6.79;51.28
9723;DHT22;4900;49.306;8.500;2023-02-08T10:39:44;7.02;50.41
9723;DHT22;4900;49.306;8.500;2023-02-08T10:42:54;7.23;50.50
9723;DHT22;4900;49.306;8.500;2023-02-08T10:46:14;7.38;49.23
9723;DHT22;4900;49.306;8.500;2023-02-08T10:49:38;7.58;48.94
9723;DHT22;4900;49.306;8.500;2023-02-08T10:52:42;7.69;48.05
9723;DHT22;4900;49.306;8.500;2023-02-08T10:55:46;7.88;46.97
9723;DHT22;4900;49.306;8.500;2023-02-08T10:58:51;7.99;46.61
9723;DHT22;4900;49.306;8.500;2023-02-08T11:01:55;8.06;45.46
9723;DHT22;4900;49.306;8.500;2023-02-08T11:05:05;8.30;46.20
9723;DHT22;4900;49.306;8.500;2023-02-08T11:08:14;8.42;45.65
9723;DHT22;4900;49.306;8.500;2023-02-08T11:11:19;8.51;44.60
9723;DHT22;4900;49.306;8.500;2023-02-08T11:14:25;8.66;44.35
9723;DHT22;4900;49.306;8.500;2023-02-08T11:17:31;8.85;43.92
9723;DHT22;4900;49.306;8.500;2023-02-08T11:20:38;8.99;43.19
9723;DHT22;4900;49.306;8.500;2023-02-08T11:23:41;9.10;43.27
9723;DHT22;4900;49.306;8.500;2023-02-08T11:26:45;9.23;42.63
9723;DHT22;4900;49.306;8.500;2023-02-08T11:33:19;9.67;42.48
9723;DHT22;4900;49.306;8.500;2023-02-08T11:36:25;9.78;42.16
9723;DHT22;4900;49.306;8.500;2023-02-08T11:39:37;10.00;42.16
9723;DHT22;4900;49.306;8.500;2023-02-08T11:42:42;10.07;42.08
9723;DHT22;4900;49.306;8.500;2023-02-08T11:45:49;10.08;40.41
9723;DHT22;4900;49.306;8.500;2023-02-08T11:48:53;10.14;40.74
9723;DHT22;4900;49.306;8.500;2023-02-08T11:51:56;10.29;41.15
9723;DHT22;4900;49.306;8.500;2023-02-08T11:58:24;10.59;39.46
9723;DHT22;4900;49.306;8.500;2023-02-08T12:01:38;10.83;40.33
9723;DHT22;4900;49.306;8.500;2023-02-08T12:04:42;10.90;39.32
9723;DHT22;4900;49.306;8.500;2023-02-08T12:08:04;11.07;39.60
9723;DHT22;4900;49.306;8.500;2023-02-08T12:11:18;11.08;37.95
9723;DHT22;4900;49.306;8.500;2023-02-08T12:17:56;11.22;37.68
9723;DHT22;4900;49.306;8.500;2023-02-08T12:21:42;11.31;38.45
9723;DHT22;4900;49.306;8.500;2023-02-08T12:37:44;11.73;37.39
9723;DHT22;4900;49.306;8.500;2023-02-08T12:41:14;11.80;37.12
9723;DHT22;4900;49.306;8.500;2023-02-08T12:44:27;11.81;36.92
9723;DHT22;4900;49.306;8.500;2023-02-08T12:50:46;11.95;37.32
9723;DHT22;4900;49.306;8.500;2023-02-08T12:54:02;12.17;37.65
9723;DHT22;4900;49.306;8.500;2023-02-08T12:57:11;12.18;37.23
9723;DHT22;4900;49.306;8.500;2023-02-08T13:00:25;12.35;37.03
9723;DHT22;4900;49.306;8.500;2023-02-08T13:03:48;12.42;36.68
9723;DHT22;4900;49.306;8.500;2023-02-08T13:06:59;12.48;37.38
9723;DHT22;4900;49.306;8.500;2023-02-08T13:10:05;12.66;37.82
9723;DHT22;4900;49.306;8.500;2023-02-08T13:13:19;12.76;37.13
9723;DHT22;4900;49.306;8.500;2023-02-08T13:16:27;12.94;37.88
9723;DHT22;4900;49.306;8.500;2023-02-08T13:22:51;13.07;36.58
9723;DHT22;4900;49.306;8.500;2023-02-08T13:26:02;13.07;36.34
9723;DHT22;4900;49.306;8.500;2023-02-08T13:29:17;13.07;35.80
9723;DHT22;4900;49.306;8.500;2023-02-08T13:32:31;13.15;36.67
9723;DHT22;4900;49.306;8.500;2023-02-08T13:35:38;13.25;36.25
9723;DHT22;4900;49.306;8.500;2023-02-08T13:38:46;13.42;37.01
9723;DHT22;4900;49.306;8.500;2023-02-08T13:41:53;13.38;36.53
9723;DHT22;4900;49.306;8.500;2023-02-08T13:44:57;13.40;36.53
9723;DHT22;4900;49.306;8.500;2023-02-08T13:48:10;13.54;36.61
9723;DHT22;4900;49.306;8.500;2023-02-08T13:54:32;13.56;37.22
9723;DHT22;4900;49.306;8.500;2023-02-08T13:57:51;13.59;36.58
9723;DHT22;4900;49.306;8.500;2023-02-08T14:10:40;13.80;36.94
9723;DHT22;4900;49.306;8.500;2023-02-08T14:14:20;13.88;37.74
9723;DHT22;4900;49.306;8.500;2023-02-08T14:17:27;13.87;36.90
9723;DHT22;4900;49.306;8.500;2023-02-08T14:20:38;14.04;37.14
9723;DHT22;4900;49.306;8.500;2023-02-08T14:23:41;14.14;36.70
9723;DHT22;4900;49.306;8.500;2023-02-08T14:26:45;14.26;36.83
9723;DHT22;4900;49.306;8.500;2023-02-08T14:33:11;14.25;36.69
9723;DHT22;4900;49.306;8.500;2023-02-08T14:36:30;14.19;36.56
9723;DHT22;4900;49.306;8.500;2023-02-08T14:39:35;14.12;36.33
9723;DHT22;4900;49.306;8.500;2023-02-08T14:42:59;14.12;37.01
9723;DHT22;4900;49.306;8.500;2023-02-08T14:49:42;14.09;36.24
9723;DHT22;4900;49.306;8.500;2023-02-08T14:52:54;14.15;36.89
9723;DHT22;4900;49.306;8.500;2023-02-08T14:56:17;14.11;36.47
9723;DHT22;4900;49.306;8.500;2023-02-08T14:59:25;14.12;36.98
9723;DHT22;4900;49.306;8.500;2023-02-08T15:02:29;14.16;36.14
9723;DHT22;4900;49.306;8.500;2023-02-08T15:06:03;14.00;36.13
9723;DHT22;4900;49.306;8.500;2023-02-08T15:09:19;13.94;35.86
9723;DHT22;4900;49.306;8.500;2023-02-08T15:12:30;13.77;36.21
9723;DHT22;4900;49.306;8.500;2023-02-08T15:15:38;13.59;36.40
9723;DHT22;4900;49.306;8.500;2023-02-08T15:18:45;13.43;36.25
9723;DHT22;4900;49.306;8.500;2023-02-08T15:21:49;13.22;36.75
9723;DHT22;4900;49.306;8.500;2023-02-08T15:24:56;13.01;37.06
9723;DHT22;4900;49.306;8.500;2023-02-08T15:28:24;12.84;37.22
9723;DHT22;4900;49.306;8.500;2023-02-08T15:31:30;12.60;37.57
9723;DHT22;4900;49.306;8.500;2023-02-08T15:34:33;12.42;37.53
9723;DHT22;4900;49.306;8.500;2023-02-08T15:37:37;12.05;37.09
9723;DHT22;4900;49.306;8.500;2023-02-08T15:40:40;11.65;36.58
9723;DHT22;4900;49.306;8.500;2023-02-08T15:43:43;11.04;37.56
9723;DHT22;4900;49.306;8.500;2023-02-08T15:46:48;10.45;37.69
9723;DHT22;4900;49.306;8.500;2023-02-08T15:49:53;9.89;38.55
9723;DHT22;4900;49.306;8.500;2023-02-08T15:53:00;9.36;38.84
9723;DHT22;4900;49.306;8.500;2023-02-08T15:56:03;8.83;39.91
9723;DHT22;4900;49.306;8.500;2023-02-08T15:59:18;8.41;40.74
9723;DHT22;4900;49.306;8.500;2023-02-08T16:02:31;7.89;41.13
9723;DHT22;4900;49.306;8.500;2023-02-08T16:05:35;7.55;41.97
9723;DHT22;4900;49.306;8.500;2023-02-08T16:08:41;7.20;42.65
9723;DHT22;4900;49.306;8.500;2023-02-08T16:11:48;6.74;43.63
9723;DHT22;4900;49.306;8.500;2023-02-08T16:14:52;6.48;44.18
9723;DHT22;4900;49.306;8.500;2023-02-08T16:17:58;6.22;45.11
9723;DHT22;4900;49.306;8.500;2023-02-08T16:21:03;5.87;46.24
9723;DHT22;4900;49.306;8.500;2023-02-08T16:27:24;5.42;47.57
9723;DHT22;4900;49.306;8.500;2023-02-08T16:30:29;5.22;47.73
9723;DHT22;4900;49.306;8.500;2023-02-08T16:33:32;5.01;48.30
9723;DHT22;4900;49.306;8.500;2023-02-08T16:36:41;4.85;48.76
9723;DHT22;4900;49.306;8.500;2023-02-08T16:40:06;4.63;49.48
9723;DHT22;4900;49.306;8.500;2023-02-08T16:46:27;4.26;50.46
9723;DHT22;4900;49.306;8.500;2023-02-08T16:49:31;4.14;50.85
9723;DHT22;4900;49.306;8.500;2023-02-08T16:52:34;3.91;51.40
9723;DHT22;4900;49.306;8.500;2023-02-08T16:55:38;3.73;51.94
9723;DHT22;4900;49.306;8.500;2023-02-08T16:58:40;3.60;52.48
9723;DHT22;4900;49.306;8.500;2023-02-08T17:01:43;3.42;52.99
9723;DHT22;4900;49.306;8.500;2023-02-08T17:04:48;3.29;52.96
9723;DHT22;4900;49.306;8.500;2023-02-08T17:07:53;3.19;53.31
9723;DHT22;4900;49.306;8.500;2023-02-08T17:10:56;3.04;53.78
9723;DHT22;4900;49.306;8.500;2023-02-08T17:14:00;2.90;54.28
9723;DHT22;4900;49.306;8.500;2023-02-08T17:17:04;2.76;54.68
9723;DHT22;4900;49.306;8.500;2023-02-08T17:20:20;2.65;55.02
9723;DHT22;4900;49.306;8.500;2023-02-08T17:23:24;2.51;55.20
9723;DHT22;4900;49.306;8.500;2023-02-08T17:26:33;2.42;55.46
9723;DHT22;4900;49.306;8.500;2023-02-08T17:29:38;2.30;55.94
9723;DHT22;4900;49.306;8.500;2023-02-08T17:32:42;2.17;56.29
9723;DHT22;4900;49.306;8.500;2023-02-08T17:35:47;2.06;56.79
9723;DHT22;4900;49.306;8.500;2023-02-08T17:38:51;1.98;56.84
9723;DHT22;4900;49.306;8.500;2023-02-08T17:41:53;1.89;57.16
9723;DHT22;4900;49.306;8.500;2023-02-08T17:44:56;1.80;57.52
9723;DHT22;4900;49.306;8.500;2023-02-08T17:48:01;1.70;57.81
9723;DHT22;4900;49.306;8.500;2023-02-08T17:51:11;1.58;58.15
9723;DHT22;4900;49.306;8.500;2023-02-08T17:54:18;1.45;58.52
9723;DHT22;4900;49.306;8.500;2023-02-08T17:57:22;1.37;58.78
9723;DHT22;4900;49.306;8.500;2023-02-08T18:00:25;1.24;59.03
9723;DHT22;4900;49.306;8.500;2023-02-08T18:03:28;1.14;59.27
9723;DHT22;4900;49.306;8.500;2023-02-08T18:06:31;1.06;59.55
9723;DHT22;4900;49.306;8.500;2023-02-08T18:09:35;0.97;59.75
9723;DHT22;4900;49.306;8.500;2023-02-08T18:12:38;0.89;59.93
9723;DHT22;4900;49.306;8.500;2023-02-08T18:15:41;0.79;60.14
9723;DHT22;4900;49.306;8.500;2023-02-08T18:18:44;0.69;60.28
9723;DHT22;4900;49.306;8.500;2023-02-08T18:21:48;0.62;60.62
9723;DHT22;4900;49.306;8.500;2023-02-08T18:24:50;0.50;60.88
9723;DHT22;4900;49.306;8.500;2023-02-08T18:27:55;0.41;61.03
9723;DHT22;4900;49.306;8.500;2023-02-08T18:31:06;0.34;61.36
9723;DHT22;4900;49.306;8.500;2023-02-08T18:34:10;0.26;61.52
9723;DHT22;4900;49.306;8.500;2023-02-08T18:37:14;0.19;61.66
9723;DHT22;4900;49.306;8.500;2023-02-08T18:40:17;0.12;61.86
9723;DHT22;4900;49.306;8.500;2023-02-08T18:43:20;0.02;61.95
9723;DHT22;4900;49.306;8.500;2023-02-08T18:46:25;-0.07;62.23
9723;DHT22;4900;49.306;8.500;2023-02-08T18:49:28;-0.08;62.31
9723;DHT22;4900;49.306;8.500;2023-02-08T18:52:31;-0.15;62.59
9723;DHT22;4900;49.306;8.500;2023-02-08T18:55:34;-0.21;62.70
9723;DHT22;4900;49.306;8.500;2023-02-08T18:58:37;-0.25;62.69
9723;DHT22;4900;49.306;8.500;2023-02-08T19:01:40;-0.32;62.96
9723;DHT22;4900;49.306;8.500;2023-02-08T19:04:43;-0.38;63.04
9723;DHT22;4900;49.306;8.500;2023-02-08T19:07:47;-0.43;63.35
9723;DHT22;4900;49.306;8.500;2023-02-08T19:10:50;-0.50;63.62
9723;DHT22;4900;49.306;8.500;2023-02-08T19:13:55;-0.57;63.69
9723;DHT22;4900;49.306;8.500;2023-02-08T19:16:59;-0.64;63.82
9723;DHT22;4900;49.306;8.500;2023-02-08T19:20:02;-0.68;63.87
9723;DHT22;4900;49.306;8.500;2023-02-08T19:23:05;-0.74;64.33
9723;DHT22;4900;49.306;8.500;2023-02-08T19:26:15;-0.77;64.72
9723;DHT22;4900;49.306;8.500;2023-02-08T19:29:18;-0.76;64.92
9723;DHT22;4900;49.306;8.500;2023-02-08T19:32:24;-0.74;64.95
9723;DHT22;4900;49.306;8.500;2023-02-08T19:35:26;-0.76;65.02
9723;DHT22;4900;49.306;8.500;2023-02-08T19:38:29;-0.77;65.04
9723;DHT22;4900;49.306;8.500;2023-02-08T19:41:35;-0.84;65.36
9723;DHT22;4900;49.306;8.500;2023-02-08T19:44:39;-0.91;65.56
9723;DHT22;4900;49.306;8.500;2023-02-08T19:47:42;-0.89;65.48
9723;DHT22;4900;49.306;8.500;2023-02-08T19:50:55;-0.97;65.55
9723;DHT22;4900;49.306;8.500;2023-02-08T19:54:00;-0.99;65.51
9723;DHT22;4900;49.306;8.500;2023-02-08T19:57:03;-1.05;65.62
9723;DHT22;4900;49.306;8.500;2023-02-08T20:00:07;-1.09;65.47
9723;DHT22;4900;49.306;8.500;2023-02-08T20:03:11;-1.15;65.31
9723;DHT22;4900;49.306;8.500;2023-02-08T20:06:24;-1.16;65.35
9723;DHT22;4900;49.306;8.500;2023-02-08T20:09:28;-1.21;65.72
9723;DHT22;4900;49.306;8.500;2023-02-08T20:12:31;-1.26;65.95
9723;DHT22;4900;49.306;8.500;2023-02-08T20:15:35;-1.29;65.94
9723;DHT22;4900;49.306;8.500;2023-02-08T20:18:39;-1.35;66.21
9723;DHT22;4900;49.306;8.500;2023-02-08T20:21:42;-1.35;66.52
9723;DHT22;4900;49.306;8.500;2023-02-08T20:24:45;-1.38;66.52
9723;DHT22;4900;49.306;8.500;2023-02-08T20:27:47;-1.35;66.66
9723;DHT22;4900;49.306;8.500;2023-02-08T20:30:50;-1.33;66.79
9723;DHT22;4900;49.306;8.500;2023-02-08T20:33:55;-1.36;67.10
9723;DHT22;4900;49.306;8.500;2023-02-08T20:36:59;-1.31;67.33
9723;DHT22;4900;49.306;8.500;2023-02-08T20:40:03;-1.31;67.21
9723;DHT22;4900;49.306;8.500;2023-02-08T20:43:06;-1.31;67.23
9723;DHT22;4900;49.306;8.500;2023-02-08T20:46:14;-1.32;67.36
9723;DHT22;4900;49.306;8.500;2023-02-08T20:49:17;-1.33;67.66
9723;DHT22;4900;49.306;8.500;2023-02-08T20:52:24;-1.31;67.91
9723;DHT22;4900;49.306;8.500;2023-02-08T20:55:27;-1.25;67.97
9723;DHT22;4900;49.306;8.500;2023-02-08T20:58:29;-1.25;67.94
9723;DHT22;4900;49.306;8.500;2023-02-08T21:01:33;-1.26;68.00
9723;DHT22;4900;49.306;8.500;2023-02-08T21:04:37;-1.23;68.27
9723;DHT22;4900;49.306;8.500;2023-02-08T21:07:40;-1.22;68.18
9723;DHT22;4900;49.306;8.500;2023-02-08T21:10:43;-1.22;68.10
9723;DHT22;4900;49.306;8.500;2023-02-08T21:13:46;-1.22;68.19
9723;DHT22;4900;49.306;8.500;2023-02-08T21:16:52;-1.21;68.32
9723;DHT22;4900;49.306;8.500;2023-02-08T21:19:57;-1.21;68.28
9723;DHT22;4900;49.306;8.500;2023-02-08T21:23:00;-1.18;68.24
9723;DHT22;4900;49.306;8.500;2023-02-08T21:26:05;-1.19;67.98
9723;DHT22;4900;49.306;8.500;2023-02-08T21:29:09;-1.22;67.81
9723;DHT22;4900;49.306;8.500;2023-02-08T21:32:12;-1.22;67.75
9723;DHT22;4900;49.306;8.500;2023-02-08T21:35:15;-1.26;67.72
9723;DHT22;4900;49.306;8.500;2023-02-08T21:38:19;-1.32;67.59
9723;DHT22;4900;49.306;8.500;2023-02-08T21:41:25;-1.35;67.62
9723;DHT22;4900;49.306;8.500;2023-02-08T21:44:28;-1.43;67.77
9723;DHT22;4900;49.306;8.500;2023-02-08T21:47:32;-1.46;68.22
9723;DHT22;4900;49.306;8.500;2023-02-08T21:50:37;-1.49;68.65
9723;DHT22;4900;49.306;8.500;2023-02-08T21:53:59;-1.49;68.74
9723;DHT22;4900;49.306;8.500;2023-02-08T21:57:23;-1.49;68.78
9723;DHT22;4900;49.306;8.500;2023-02-08T22:00:27;-1.49;68.83
9723;DHT22;4900;49.306;8.500;2023-02-08T22:03:30;-1.49;69.00
9723;DHT22;4900;49.306;8.500;2023-02-08T22:06:33;-1.49;68.88
9723;DHT22;4900;49.306;8.500;2023-02-08T22:09:35;-1.49;68.93